createdAt,value
2023-04-28T00:00:36.711Z,7.07
2023-04-28T00:03:03.885Z,13.68
2023-04-28T00:05:30.880Z,9.05
2023-04-28T00:07:58.063Z,4.72
2023-04-28T00:10:24.810Z,6.78
2023-04-28T00:12:51.559Z,7.38
2023-04-28T00:15:18.377Z,6.75
2023-04-28T00:17:45.506Z,5.30
2023-04-28T00:20:14.973Z,6.63
2023-04-28T00:22:41.761Z,6.68
2023-04-28T00:25:09.429Z,4.65
2023-04-28T00:27:36.652Z,4.75
2023-04-28T00:30:03.930Z,4.15
2023-04-28T00:32:31.082Z,9.93
2023-04-28T00:34:58.195Z,5.03
2023-04-28T00:37:25.162Z,5.97
2023-04-28T00:39:58.604Z,4.28
2023-04-28T00:42:25.811Z,3.72
2023-04-28T00:44:52.786Z,5.82
2023-04-28T00:47:20.650Z,8.50
2023-04-28T00:49:49.653Z,6.30
2023-04-28T00:52:16.672Z,7.03
2023-04-28T00:54:43.689Z,6.50
2023-04-28T00:57:10.939Z,6.30
2023-04-28T00:59:38.445Z,7.82
2023-04-28T01:02:06.732Z,7.30
2023-04-28T01:04:34.286Z,7.38
2023-04-28T01:07:02.497Z,14.75
2023-04-28T01:09:29.595Z,11.10
2023-04-28T01:11:58.442Z,14.30
2023-04-28T01:14:46.918Z,22.52
2023-04-28T01:17:14.179Z,13.25
2023-04-28T01:19:41.379Z,11.40
2023-04-28T01:22:10.826Z,11.55
2023-04-28T01:24:37.945Z,13.80
2023-04-28T01:27:07.065Z,12.40
2023-04-28T01:29:33.865Z,14.02
2023-04-28T01:32:00.976Z,11.07
2023-04-28T01:34:27.831Z,12.48
2023-04-28T01:36:54.869Z,12.77
2023-04-28T01:39:21.859Z,13.40
2023-04-28T01:41:48.746Z,13.98
2023-04-28T01:44:15.765Z,26.45
2023-04-28T01:46:43.189Z,15.80
2023-04-28T01:49:10.154Z,22.17
2023-04-28T01:51:37.233Z,14.90
2023-04-28T01:54:04.976Z,20.10
2023-04-28T01:56:31.858Z,15.75
2023-04-28T01:59:00.111Z,13.65
2023-04-28T02:01:27.556Z,11.15
2023-04-28T02:03:55.900Z,14.35
2023-04-28T02:06:23.846Z,13.85
2023-04-28T02:08:50.967Z,15.73
2023-04-28T02:11:18.134Z,20.10
2023-04-28T02:13:45.015Z,17.60
2023-04-28T02:16:12.070Z,16.33
2023-04-28T02:18:39.060Z,11.68
2023-04-28T02:21:12.882Z,13.27
2023-04-28T02:23:40.541Z,14.45
2023-04-28T02:26:07.699Z,11.68
2023-04-28T02:28:34.527Z,11.23
2023-04-28T02:31:06.351Z,10.23
2023-04-28T02:33:33.493Z,15.90
2023-04-28T02:36:01.496Z,13.88
2023-04-28T02:38:28.415Z,11.65
2023-04-28T02:41:02.906Z,9.63
2023-04-28T02:43:29.699Z,13.88
2023-04-28T02:45:57.571Z,13.80
2023-04-28T02:48:25.961Z,13.55
2023-04-28T02:50:53.985Z,12.20
2023-04-28T02:53:21.803Z,21.08
2023-04-28T02:55:49.664Z,19.98
2023-04-28T02:58:18.232Z,26.98
2023-04-28T03:00:46.495Z,21.50
2023-04-28T03:03:14.054Z,22.27
2023-04-28T03:05:41.524Z,20.25
2023-04-28T03:08:08.440Z,21.98
2023-04-28T03:10:35.702Z,22.80
2023-04-28T03:13:03.753Z,36.90
2023-04-28T03:15:30.923Z,27.17
2023-04-28T03:17:58.173Z,18.20
2023-04-28T03:20:25.296Z,19.67
2023-04-28T03:22:52.355Z,19.35
2023-04-28T03:25:19.434Z,17.35
2023-04-28T03:27:49.308Z,17.98
2023-04-28T03:30:16.453Z,16.52
2023-04-28T03:32:43.642Z,15.07
2023-04-28T03:35:10.982Z,13.27
2023-04-28T03:37:39.415Z,21.38
2023-04-28T03:40:07.488Z,25.73
2023-04-28T03:42:54.524Z,21.23
2023-04-28T03:45:31.617Z,14.48
2023-04-28T03:47:59.008Z,15.63
2023-04-28T03:50:26.782Z,10.38
2023-04-28T03:52:55.319Z,9.93
2023-04-28T03:55:22.755Z,12.27
2023-04-28T03:57:51.276Z,8.60
2023-04-28T04:00:18.753Z,16.65
2023-04-28T04:02:48.222Z,9.25
2023-04-28T04:05:16.258Z,9.95
2023-04-28T04:07:43.625Z,14.35
2023-04-28T04:10:10.798Z,9.73
2023-04-28T04:12:40.784Z,9.85
2023-04-28T04:15:08.563Z,6.68
2023-04-28T04:17:35.728Z,8.13
2023-04-28T04:20:02.675Z,7.00
2023-04-28T04:22:29.888Z,5.45
2023-04-28T04:24:56.740Z,9.82
2023-04-28T04:27:25.910Z,8.52
2023-04-28T04:29:52.786Z,10.00
2023-04-28T04:32:20.417Z,5.15
2023-04-28T04:34:47.611Z,8.45
2023-04-28T04:37:14.889Z,8.82
2023-04-28T04:39:54.745Z,14.73
2023-04-28T04:42:25.456Z,8.38
2023-04-28T04:45:08.490Z,6.05
2023-04-28T04:47:36.166Z,8.30
2023-04-28T04:50:03.050Z,6.65
2023-04-28T04:52:30.223Z,6.57
2023-04-28T04:54:57.439Z,4.32
2023-04-28T04:57:25.153Z,11.32
2023-04-28T05:00:17.219Z,4.90
2023-04-28T05:02:44.664Z,4.18
2023-04-28T05:05:21.058Z,7.18
2023-04-28T05:08:04.080Z,8.10
2023-04-28T05:10:30.984Z,10.60
2023-04-28T05:12:59.204Z,6.35
2023-04-28T05:15:26.438Z,7.90
2023-04-28T05:18:14.041Z,8.68
2023-04-28T05:20:41.318Z,9.18
2023-04-28T05:23:08.493Z,4.82
2023-04-28T05:25:35.647Z,5.60
2023-04-28T05:28:07.506Z,6.90
2023-04-28T05:30:34.961Z,7.45
2023-04-28T05:33:02.077Z,6.35
2023-04-28T05:35:31.325Z,6.25
2023-04-28T05:37:59.336Z,10.55
2023-04-28T05:40:27.565Z,4.72
2023-04-28T05:42:55.456Z,10.95
2023-04-28T05:45:22.577Z,4.80
2023-04-28T05:47:49.771Z,29.98
2023-04-28T05:50:17.167Z,28.50
2023-04-28T05:52:44.204Z,27.40
2023-04-28T05:55:11.626Z,7.20
2023-04-28T05:57:49.227Z,6.07
2023-04-28T06:00:20.166Z,4.75
2023-04-28T06:02:47.258Z,22.73
2023-04-28T06:05:14.612Z,14.93
2023-04-28T06:07:42.900Z,9.95
2023-04-28T06:10:10.315Z,5.75
2023-04-28T06:12:37.750Z,9.68
2023-04-28T06:15:06.309Z,3.30
2023-04-28T06:17:34.307Z,6.78
2023-04-28T06:20:01.480Z,4.68
2023-04-28T06:22:28.515Z,5.35
2023-04-28T06:24:55.805Z,3.58
2023-04-28T06:27:32.924Z,6.32
2023-04-28T06:30:00.065Z,7.90
2023-04-28T06:32:27.157Z,6.60
2023-04-28T06:34:54.581Z,3.33
2023-04-28T06:37:23.558Z,4.68
2023-04-28T06:39:50.754Z,9.75
2023-04-28T06:42:19.149Z,8.07
2023-04-28T06:44:53.426Z,6.15
2023-04-28T06:47:21.083Z,4.72
2023-04-28T06:49:50.196Z,4.75
2023-04-28T06:52:17.295Z,4.35
2023-04-28T06:54:44.303Z,3.22
2023-04-28T06:57:11.260Z,5.93
2023-04-28T06:59:38.341Z,2.28
2023-04-28T07:02:05.601Z,6.65
2023-04-28T07:04:32.625Z,5.60
2023-04-28T07:06:59.669Z,5.90
2023-04-28T07:09:26.589Z,6.47
2023-04-28T07:11:54.257Z,4.53
2023-04-28T07:14:21.493Z,3.58
2023-04-28T07:16:48.777Z,6.35
2023-04-28T07:19:15.882Z,5.45
2023-04-28T07:21:42.862Z,4.35
2023-04-28T07:24:09.868Z,3.47
2023-04-28T07:26:37.095Z,7.18
2023-04-28T07:29:04.299Z,4.28
2023-04-28T07:31:31.968Z,3.53
2023-04-28T07:33:58.897Z,3.88
2023-04-28T07:36:27.533Z,4.18
2023-04-28T07:38:54.534Z,3.55
2023-04-28T07:41:21.964Z,2.53
2023-04-28T07:43:48.942Z,4.45
2023-04-28T07:46:15.836Z,3.70
2023-04-28T07:48:42.824Z,19.05
2023-04-28T07:51:09.768Z,10.85
2023-04-28T07:53:36.909Z,3.60
2023-04-28T07:56:04.024Z,6.72
2023-04-28T07:58:31.768Z,5.20
2023-04-28T08:00:58.694Z,7.10
2023-04-28T08:03:25.870Z,2.88
2023-04-28T08:05:52.967Z,4.78
2023-04-28T08:08:19.780Z,3.83
2023-04-28T08:10:46.804Z,4.10
2023-04-28T08:13:13.881Z,3.97
2023-04-28T08:15:41.066Z,2.55
2023-04-28T08:18:08.825Z,4.53
2023-04-28T08:20:35.736Z,3.33
2023-04-28T08:23:02.780Z,2.15
2023-04-28T08:25:29.668Z,4.05
2023-04-28T08:27:57.581Z,11.85
2023-04-28T08:30:24.906Z,3.80
2023-04-28T08:32:52.250Z,10.57
2023-04-28T08:35:19.493Z,5.82
2023-04-28T08:37:49.709Z,2.53
2023-04-28T08:40:16.665Z,4.60
2023-04-28T08:42:46.161Z,2.00
2023-04-28T08:45:16.647Z,4.60
2023-04-28T08:47:47.911Z,8.70
2023-04-28T08:50:15.414Z,2.92
2023-04-28T08:52:43.697Z,4.57
2023-04-28T08:55:12.984Z,4.93
2023-04-28T08:57:47.253Z,3.03
2023-04-28T09:00:14.837Z,1.77
2023-04-28T09:02:45.317Z,7.45
2023-04-28T09:05:14.141Z,3.90
2023-04-28T09:07:41.782Z,3.75
2023-04-28T09:10:21.994Z,2.55
2023-04-28T09:12:51.851Z,3.17
2023-04-28T09:15:32.652Z,2.35
2023-04-28T09:20:30.092Z,3.60
2023-04-28T09:23:51.263Z,1.77
2023-04-28T09:26:18.316Z,2.70
2023-04-28T09:28:45.458Z,5.82
2023-04-28T09:31:26.127Z,4.18
2023-04-28T09:34:00.317Z,6.97
2023-04-28T09:36:29.696Z,4.10
2023-04-28T09:39:01.053Z,2.40
2023-04-28T09:41:40.864Z,5.03
2023-04-28T09:44:24.543Z,2.33
2023-04-28T09:46:51.570Z,8.20
2023-04-28T09:49:18.742Z,5.43
2023-04-28T09:51:46.422Z,7.07
2023-04-28T09:54:14.041Z,4.15
2023-04-28T09:56:44.341Z,3.60
2023-04-28T09:59:12.694Z,4.50
2023-04-28T10:01:41.471Z,5.20
2023-04-28T10:04:12.080Z,5.15
2023-04-28T10:06:40.503Z,3.67
2023-04-28T10:09:08.577Z,4.07
2023-04-28T10:11:36.042Z,3.88
2023-04-28T10:14:02.983Z,8.68
2023-04-28T10:16:33.294Z,4.75
2023-04-28T10:19:03.476Z,5.90
2023-04-28T10:21:37.670Z,6.45
2023-04-28T10:24:13.645Z,3.72
2023-04-28T10:26:52.780Z,6.80
2023-04-28T10:29:26.966Z,3.75
2023-04-28T10:32:30.328Z,2.88
2023-04-28T10:35:22.652Z,2.85
2023-04-28T10:38:14.990Z,2.22
2023-04-28T10:40:44.702Z,3.63
2023-04-28T10:43:25.338Z,5.07
2023-04-28T10:45:57.514Z,2.27
2023-04-28T10:48:34.143Z,3.35
2023-04-28T10:51:04.163Z,3.58
2023-04-28T10:53:47.193Z,4.30
2023-04-28T10:56:23.769Z,4.55
2023-04-28T10:58:58.307Z,3.60
2023-04-28T11:01:26.131Z,10.88
2023-04-28T11:04:13.884Z,3.60
2023-04-28T11:07:08.514Z,4.57
2023-04-28T11:09:35.254Z,10.25
2023-04-28T11:12:10.898Z,3.15
2023-04-28T11:14:40.852Z,9.65
2023-04-28T11:17:13.456Z,3.72
2023-04-28T11:19:42.279Z,2.35
2023-04-28T11:22:17.552Z,4.68
2023-04-28T11:25:04.846Z,2.85
2023-04-28T11:27:33.745Z,2.53
2023-04-28T11:30:01.735Z,3.00
2023-04-28T11:32:33.704Z,8.73
2023-04-28T11:35:00.991Z,4.15
2023-04-28T11:37:27.874Z,4.53
2023-04-28T11:39:55.168Z,4.40
2023-04-28T11:42:22.073Z,6.57
2023-04-28T11:44:54.013Z,3.95
2023-04-28T11:47:34.540Z,5.82
2023-04-28T11:50:03.164Z,4.25
2023-04-28T11:52:30.505Z,4.57
2023-04-28T11:55:00.501Z,7.10
2023-04-28T11:57:28.179Z,5.72
2023-04-28T12:00:19.448Z,3.10
2023-04-28T12:05:13.797Z,4.28
2023-04-28T12:07:44.706Z,3.33
2023-04-28T12:10:16.110Z,2.85
2023-04-28T12:12:51.063Z,2.40
2023-04-28T12:15:20.766Z,5.57
2023-04-28T12:18:11.889Z,2.30
2023-04-28T12:20:39.644Z,2.75
2023-04-28T12:23:07.919Z,4.65
2023-04-28T12:25:43.881Z,5.70
2023-04-28T12:28:11.273Z,4.72
2023-04-28T12:30:40.480Z,3.72
2023-04-28T12:33:26.114Z,3.88
2023-04-28T12:35:55.512Z,6.07
2023-04-28T12:38:26.688Z,6.95
2023-04-28T12:40:53.998Z,4.15
2023-04-28T12:43:23.454Z,2.88
2023-04-28T12:45:51.221Z,5.88
2023-04-28T12:48:18.761Z,8.40
2023-04-28T12:50:46.183Z,5.80
2023-04-28T12:53:13.226Z,8.45
2023-04-28T12:55:40.641Z,7.65
2023-04-28T12:58:07.556Z,3.60
2023-04-28T13:00:34.584Z,6.25
2023-04-28T13:03:01.973Z,52.10
2023-04-28T13:05:28.892Z,4.60
2023-04-28T13:07:56.474Z,7.03
2023-04-28T13:10:23.798Z,6.72
2023-04-28T13:12:51.080Z,6.75
2023-04-28T13:15:18.216Z,6.07
2023-04-28T13:17:46.685Z,5.03
2023-04-28T13:20:13.884Z,7.35
2023-04-28T13:22:41.877Z,4.40
2023-04-28T13:25:09.390Z,7.97
2023-04-28T13:27:37.775Z,7.10
2023-04-28T13:30:05.629Z,8.25
2023-04-28T13:32:32.765Z,6.00
2023-04-28T13:34:59.671Z,12.43
2023-04-28T13:37:27.303Z,5.20
2023-04-28T13:39:54.286Z,4.28
2023-04-28T13:42:21.339Z,8.60
2023-04-28T13:44:49.332Z,8.95
2023-04-28T13:47:16.615Z,4.93
2023-04-28T13:49:43.729Z,6.53
2023-04-28T13:52:10.897Z,3.53
2023-04-28T13:54:37.702Z,5.05
2023-04-28T13:57:04.733Z,7.45
2023-04-28T13:59:31.602Z,4.88
2023-04-28T14:01:58.745Z,4.60
2023-04-28T14:04:26.030Z,4.18
2023-04-28T14:06:53.937Z,3.60
2023-04-28T14:09:21.616Z,7.45
2023-04-28T14:11:48.535Z,6.82
2023-04-28T14:14:15.724Z,5.03
2023-04-28T14:16:42.711Z,5.13
2023-04-28T14:19:09.835Z,14.10
2023-04-28T14:21:37.064Z,4.45
2023-04-28T14:24:04.148Z,4.18
2023-04-28T14:26:31.428Z,3.78
2023-04-28T14:29:00.296Z,4.15
2023-04-28T14:31:27.180Z,5.03
2023-04-28T14:33:54.578Z,9.10
2023-04-28T14:36:21.801Z,3.88
2023-04-28T14:38:48.881Z,12.68
2023-04-28T14:41:15.939Z,5.25
2023-04-28T14:43:43.491Z,3.60
2023-04-28T14:46:11.732Z,5.18
2023-04-28T14:48:39.110Z,7.32
2023-04-28T14:51:05.951Z,4.72
2023-04-28T14:53:34.641Z,5.28
2023-04-28T14:56:17.338Z,4.03
2023-04-28T14:58:46.145Z,4.88
2023-04-28T15:01:13.476Z,6.05
2023-04-28T15:03:40.785Z,3.83
2023-04-28T15:06:08.189Z,5.13
2023-04-28T15:08:35.722Z,6.30
2023-04-28T15:11:02.748Z,10.70
2023-04-28T15:13:30.474Z,5.53
2023-04-28T15:15:58.008Z,4.78
2023-04-28T15:18:25.185Z,19.42
2023-04-28T15:20:55.791Z,2.70
2023-04-28T15:23:23.244Z,9.55
2023-04-28T15:25:53.637Z,5.47
2023-04-28T15:28:20.846Z,6.68
2023-04-28T15:30:47.945Z,7.90
2023-04-28T15:33:17.563Z,3.30
2023-04-28T15:35:45.617Z,5.70
2023-04-28T15:38:13.318Z,7.22
2023-04-28T15:40:41.450Z,3.15
2023-04-28T15:43:08.260Z,3.05
2023-04-28T15:45:35.873Z,4.00
2023-04-28T15:48:04.979Z,4.45
2023-04-28T15:50:32.373Z,3.97
2023-04-28T15:52:59.285Z,5.63
2023-04-28T15:55:26.838Z,5.72
2023-04-28T15:57:53.705Z,4.70
2023-04-28T16:00:20.777Z,6.57
2023-04-28T16:02:48.035Z,6.57
2023-04-28T16:05:15.266Z,3.53
2023-04-28T16:07:42.162Z,5.50
2023-04-28T16:10:25.942Z,5.25
2023-04-28T16:12:52.891Z,4.65
2023-04-28T16:15:33.765Z,10.82
2023-04-28T16:18:21.095Z,4.37
2023-04-28T16:20:48.247Z,4.82
2023-04-28T16:23:15.504Z,5.28
2023-04-28T16:25:42.857Z,4.32
2023-04-28T16:28:10.202Z,3.30
2023-04-28T16:30:37.071Z,3.40
2023-04-28T16:33:04.579Z,4.32
2023-04-28T16:35:31.816Z,6.03
2023-04-28T16:37:58.542Z,2.95
2023-04-28T16:40:25.677Z,3.60
2023-04-28T16:42:52.473Z,5.85
2023-04-28T16:45:19.793Z,10.27
2023-04-28T16:47:46.872Z,8.70
2023-04-28T16:50:14.908Z,12.18
2023-04-28T16:52:42.358Z,15.30
2023-04-28T16:55:09.931Z,8.82
2023-04-28T16:57:36.802Z,10.50
2023-04-28T17:00:05.107Z,15.27
2023-04-28T17:02:33.475Z,33.42
2023-04-28T17:05:00.577Z,38.67
2023-04-28T17:07:27.822Z,30.58
2023-04-28T17:09:54.934Z,17.52
2023-04-28T17:12:23.329Z,15.80
2023-04-28T17:14:51.159Z,17.65
2023-04-28T17:17:18.300Z,18.50
2023-04-28T17:19:45.536Z,17.60
2023-04-28T17:22:12.737Z,15.35
2023-04-28T17:24:39.711Z,19.88
2023-04-28T17:27:06.676Z,20.30
2023-04-28T17:29:33.627Z,30.63
2023-04-28T17:32:00.531Z,28.75
2023-04-28T17:34:27.492Z,27.80
2023-04-28T17:36:54.467Z,27.40
2023-04-28T17:39:21.321Z,32.05
2023-04-28T17:41:48.128Z,32.55
2023-04-28T17:44:15.089Z,24.08
2023-04-28T17:46:42.216Z,31.50
2023-04-28T17:49:09.396Z,97.70
2023-04-28T17:51:38.051Z,79.82
2023-04-28T17:54:09.358Z,22.02
2023-04-28T17:59:04.284Z,42.20
2023-04-28T18:01:34.414Z,52.20
2023-04-28T18:04:01.216Z,35.53
2023-04-28T18:06:29.191Z,20.98
2023-04-28T18:08:56.420Z,17.52
2023-04-28T18:11:23.737Z,14.88
2023-04-28T18:13:50.526Z,14.30
2023-04-28T18:16:17.379Z,10.98
2023-04-28T18:18:44.326Z,11.40
2023-04-28T18:21:11.466Z,11.55
2023-04-28T18:23:38.454Z,9.63
2023-04-28T18:26:05.817Z,12.85
2023-04-28T18:28:33.922Z,11.95
2023-04-28T18:31:07.090Z,9.45
2023-04-28T18:33:33.995Z,11.23
2023-04-28T18:36:04.909Z,10.05
2023-04-28T18:38:36.570Z,17.50
2023-04-28T18:41:22.420Z,14.68
2023-04-28T18:43:49.357Z,14.65
2023-04-28T18:46:16.516Z,20.27
2023-04-28T18:48:43.686Z,12.60
2023-04-28T18:51:10.928Z,16.40
2023-04-28T18:53:37.749Z,17.85
2023-04-28T18:56:05.043Z,18.05
2023-04-28T18:58:32.210Z,17.05
2023-04-28T19:00:59.096Z,22.05
2023-04-28T19:03:26.413Z,21.15
2023-04-28T19:05:54.137Z,15.05
2023-04-28T19:08:20.925Z,20.52
2023-04-28T19:10:49.179Z,21.45
2023-04-28T19:13:16.327Z,20.27
2023-04-28T19:15:43.065Z,17.42
2023-04-28T19:18:10.205Z,58.33
2023-04-28T19:20:37.011Z,46.50
2023-04-28T19:23:03.865Z,35.78
2023-04-28T19:25:33.563Z,23.50
2023-04-28T19:28:00.975Z,25.77
2023-04-28T19:30:27.885Z,21.50
2023-04-28T19:32:55.088Z,24.58
2023-04-28T19:35:22.059Z,29.00
2023-04-28T19:37:49.919Z,14.38
2023-04-28T19:40:16.953Z,15.32
2023-04-28T19:42:43.763Z,16.10
2023-04-28T19:45:10.964Z,18.65
2023-04-28T19:47:38.054Z,13.57
2023-04-28T19:50:05.392Z,9.20
2023-04-28T19:52:32.464Z,14.45
2023-04-28T19:55:00.897Z,17.05
2023-04-28T19:57:27.866Z,12.80
2023-04-28T19:59:54.719Z,16.25
2023-04-28T20:02:21.879Z,10.60
2023-04-28T20:04:49.708Z,17.85
2023-04-28T20:07:16.860Z,13.00
2023-04-28T20:09:44.935Z,15.20
2023-04-28T20:12:12.102Z,11.70
2023-04-28T20:14:39.052Z,13.40
2023-04-28T20:17:07.434Z,14.00
2023-04-28T20:19:35.105Z,17.77
2023-04-28T20:22:07.710Z,18.88
2023-04-28T20:24:35.673Z,21.92
2023-04-28T20:27:03.679Z,18.42
2023-04-28T20:29:34.814Z,20.83
2023-04-28T20:32:03.435Z,21.20
2023-04-28T20:34:31.622Z,14.85
2023-04-28T20:37:06.563Z,19.98
2023-04-28T20:39:33.844Z,20.52
2023-04-28T20:42:00.842Z,28.40
2023-04-28T20:44:28.002Z,25.70
2023-04-28T20:46:55.478Z,27.00
2023-04-28T20:49:28.523Z,25.63
2023-04-28T20:52:06.013Z,33.45
2023-04-28T20:54:36.645Z,31.35
2023-04-28T20:59:33.028Z,28.13
2023-04-28T21:02:00.444Z,27.20
2023-04-28T21:04:28.313Z,35.15
2023-04-28T21:06:55.773Z,25.13
2023-04-28T21:09:25.333Z,26.90
2023-04-28T21:11:52.853Z,21.77
2023-04-28T21:14:20.301Z,20.60
2023-04-28T21:16:47.413Z,26.35
2023-04-28T21:19:14.526Z,49.10
2023-04-28T21:21:41.914Z,32.47
2023-04-28T21:24:10.214Z,29.85
2023-04-28T21:26:37.166Z,27.85
2023-04-28T21:29:04.228Z,29.83
2023-04-28T21:31:49.719Z,28.00
2023-04-28T21:34:16.602Z,23.33
2023-04-28T21:36:43.516Z,14.73
2023-04-28T21:39:10.698Z,22.08
2023-04-28T21:41:38.365Z,15.10
2023-04-28T21:44:06.096Z,16.38
2023-04-28T21:46:34.308Z,15.32
2023-04-28T21:49:03.965Z,14.98
2023-04-28T21:51:32.083Z,14.27
2023-04-28T21:53:59.001Z,12.57
2023-04-28T21:56:25.878Z,11.95
2023-04-28T21:58:52.824Z,11.00
2023-04-28T22:01:20.112Z,9.55
2023-04-28T22:03:48.044Z,8.40
2023-04-28T22:06:14.903Z,6.43
2023-04-28T22:08:41.799Z,6.75
2023-04-28T22:11:09.717Z,6.18
2023-04-28T22:13:36.656Z,7.85
2023-04-28T22:16:04.399Z,5.15
2023-04-28T22:18:31.470Z,5.88
2023-04-28T22:20:58.357Z,6.38
2023-04-28T22:23:25.597Z,15.00
2023-04-28T22:25:52.671Z,9.20
2023-04-28T22:28:19.664Z,5.65
2023-04-28T22:30:47.609Z,6.97
2023-04-28T22:33:14.630Z,9.02
2023-04-28T22:35:41.622Z,12.07
2023-04-28T22:38:08.413Z,9.23
2023-04-28T22:40:35.636Z,7.07
2023-04-28T22:43:02.811Z,9.50
2023-04-28T22:45:29.721Z,7.07
2023-04-28T22:47:56.998Z,5.63
2023-04-28T22:50:23.883Z,10.15
2023-04-28T22:52:51.593Z,9.25
2023-04-28T22:55:19.635Z,8.27
2023-04-28T22:57:46.470Z,5.43
2023-04-28T23:00:15.803Z,11.55
2023-04-28T23:02:42.970Z,7.20
2023-04-28T23:05:10.157Z,7.55
2023-04-28T23:07:37.058Z,7.55
2023-04-28T23:10:05.164Z,5.57
2023-04-28T23:12:32.201Z,9.75
2023-04-28T23:14:59.343Z,10.02
2023-04-28T23:17:26.422Z,5.50
2023-04-28T23:19:53.379Z,6.30
2023-04-28T23:22:20.556Z,8.70
2023-04-28T23:24:47.497Z,7.93
2023-04-28T23:27:14.376Z,5.70
2023-04-28T23:29:41.306Z,5.30
2023-04-28T23:32:08.091Z,7.38
2023-04-28T23:34:38.123Z,11.75
2023-04-28T23:37:05.126Z,12.57
2023-04-28T23:39:32.212Z,9.70
2023-04-28T23:41:59.102Z,5.47
2023-04-28T23:44:25.971Z,7.45
2023-04-28T23:46:53.742Z,10.80
2023-04-28T23:49:23.140Z,4.68
2023-04-28T23:51:50.201Z,6.35
2023-04-28T23:54:17.148Z,7.78
2023-04-28T23:56:44.358Z,5.20
2023-04-28T23:59:11.254Z,7.10
